createdAt,value
2018-04-15T00:00:31.874Z,11.36
2018-04-15T00:01:32.094Z,11.31
2018-04-15T00:02:32.301Z,11.28
2018-04-15T00:03:32.514Z,11.36
2018-04-15T00:04:34.286Z,11.31
2018-04-15T00:05:32.862Z,11.25
2018-04-15T00:06:33.079Z,11.20
2018-04-15T00:07:33.311Z,11.29
2018-04-15T00:08:35.055Z,11.28
2018-04-15T00:09:33.650Z,11.29
2018-04-15T00:10:33.856Z,11.31
2018-04-15T00:11:34.068Z,11.17
2018-04-15T00:12:34.283Z,11.35
2018-04-15T00:13:36.289Z,11.25
2018-04-15T00:14:34.617Z,11.31
2018-04-15T00:15:34.824Z,11.28
2018-04-15T00:16:36.781Z,11.28
2018-04-15T00:17:35.242Z,11.32
2018-04-15T00:18:35.456Z,11.36
2018-04-15T00:19:35.677Z,11.36
2018-04-15T00:20:37.782Z,11.28
2018-04-15T00:21:36.120Z,11.35
2018-04-15T00:22:36.323Z,11.38
2018-04-15T00:23:36.539Z,11.41
2018-04-15T00:24:36.744Z,11.36
2018-04-15T00:25:36.968Z,11.31
2018-04-15T00:26:37.168Z,11.28
2018-04-15T00:27:37.380Z,11.29
2018-04-15T00:28:37.585Z,11.34
2018-04-15T00:29:37.796Z,11.34
2018-04-15T00:30:38.002Z,11.29
2018-04-15T00:31:38.216Z,11.35
2018-04-15T00:32:38.421Z,11.35
2018-04-15T00:33:38.636Z,11.34
2018-04-15T00:34:38.888Z,11.32
2018-04-15T00:35:39.056Z,11.49
2018-04-15T00:36:39.268Z,11.44
2018-04-15T00:37:39.484Z,11.38
2018-04-15T00:38:39.695Z,11.43
2018-04-15T00:39:39.913Z,11.47
2018-04-15T00:40:40.129Z,11.50
2018-04-15T00:41:40.338Z,11.38
2018-04-15T00:42:40.569Z,11.31
2018-04-15T00:43:40.784Z,11.32
2018-04-15T00:44:41.031Z,11.32
2018-04-15T00:45:41.201Z,11.32
2018-04-15T00:46:43.284Z,11.27
2018-04-15T00:47:41.622Z,11.28
2018-04-15T00:48:43.788Z,11.25
2018-04-15T00:49:43.783Z,11.31
2018-04-15T00:50:42.130Z,11.32
2018-04-15T00:51:42.340Z,11.34
2018-04-15T00:52:43.563Z,11.35
2018-04-15T00:53:42.769Z,11.34
2018-04-15T00:54:42.984Z,11.31
2018-04-15T00:55:43.191Z,11.29
2018-04-15T00:56:43.408Z,11.25
2018-04-15T00:57:43.617Z,11.29
2018-04-15T00:58:43.832Z,11.31
2018-04-15T00:59:44.044Z,11.38
2018-04-15T01:00:44.258Z,11.35
2018-04-15T01:01:46.304Z,11.39
2018-04-15T01:02:46.298Z,11.32
2018-04-15T01:03:44.739Z,11.28
2018-04-15T01:04:44.956Z,11.16
2018-04-15T01:05:45.157Z,11.19
2018-04-15T01:06:45.387Z,11.14
2018-04-15T01:07:45.584Z,11.07
2018-04-15T01:08:45.823Z,11.06
2018-04-15T01:09:46.043Z,11.09
2018-04-15T01:10:46.248Z,11.07
2018-04-15T01:11:46.473Z,11.11
2018-04-15T01:12:46.681Z,11.25
2018-04-15T01:13:46.881Z,11.13
2018-04-15T01:14:47.112Z,11.16
2018-04-15T01:15:47.305Z,11.16
2018-04-15T01:16:47.517Z,11.21
2018-04-15T01:17:49.282Z,11.24
2018-04-15T01:18:47.890Z,11.24
2018-04-15T01:19:48.088Z,11.25
2018-04-15T01:20:49.826Z,11.21
2018-04-15T01:21:48.507Z,11.11
2018-04-15T01:22:50.306Z,11.09
2018-04-15T01:23:48.870Z,10.96
2018-04-15T01:24:49.076Z,10.99
2018-04-15T01:25:49.290Z,10.91
2018-04-15T01:26:49.504Z,10.88
2018-04-15T01:27:51.288Z,10.84
2018-04-15T01:28:49.875Z,10.88
2018-04-15T01:29:50.094Z,10.77
2018-04-15T01:30:50.303Z,10.83
2018-04-15T01:31:52.292Z,10.78
2018-04-15T01:32:50.753Z,10.74
2018-04-15T01:33:50.961Z,10.78
2018-04-15T01:34:51.176Z,10.74
2018-04-15T01:35:53.285Z,10.73
2018-04-15T01:36:51.631Z,10.70
2018-04-15T01:37:51.844Z,10.68
2018-04-15T01:38:52.055Z,10.68
2018-04-15T01:39:52.272Z,10.71
2018-04-15T01:40:52.473Z,10.68
2018-04-15T01:41:54.299Z,10.73
2018-04-15T01:42:52.891Z,10.81
2018-04-15T01:43:53.096Z,10.84
2018-04-15T01:44:53.331Z,10.74
2018-04-15T01:45:55.293Z,10.81
2018-04-15T01:46:53.755Z,10.88
2018-04-15T01:47:55.793Z,10.88
2018-04-15T01:48:54.125Z,10.91
2018-04-15T01:49:55.837Z,10.92
2018-04-15T01:50:54.558Z,10.86
2018-04-15T01:51:54.760Z,10.95
2018-04-15T01:52:54.976Z,10.89
2018-04-15T01:53:55.191Z,10.89
2018-04-15T01:54:55.399Z,10.77
2018-04-15T01:55:55.603Z,10.78
2018-04-15T01:56:55.816Z,10.71
2018-04-15T01:57:56.018Z,10.86
2018-04-15T01:58:56.230Z,10.78
2018-04-15T01:59:58.288Z,10.70
2018-04-15T02:00:59.285Z,10.68
2018-04-15T02:01:56.754Z,10.73
2018-04-15T02:02:56.965Z,10.78
2018-04-15T02:03:57.181Z,10.80
2018-04-15T02:04:57.395Z,10.74
2018-04-15T02:05:57.610Z,10.89
2018-04-15T02:06:57.830Z,10.89
2018-04-15T02:07:58.053Z,10.91
2018-04-15T02:08:58.255Z,10.88
2018-04-15T02:09:58.472Z,10.91
2018-04-15T02:10:58.687Z,10.89
2018-04-15T02:11:58.882Z,10.95
2018-04-15T02:12:59.094Z,10.98
2018-04-15T02:13:59.310Z,11.01
2018-04-15T02:14:59.513Z,10.95
2018-04-15T02:15:59.726Z,10.96
2018-04-15T02:16:59.933Z,11.03
2018-04-15T02:18:00.151Z,10.98
2018-04-15T02:19:00.361Z,10.99
2018-04-15T02:20:00.570Z,10.98
2018-04-15T02:21:00.792Z,10.98
2018-04-15T02:22:01.000Z,11.01
2018-04-15T02:23:02.789Z,11.02
2018-04-15T02:24:01.387Z,11.01
2018-04-15T02:25:01.587Z,11.01
2018-04-15T02:26:01.796Z,10.96
2018-04-15T02:27:02.000Z,11.06
2018-04-15T02:28:03.794Z,11.03
2018-04-15T02:29:02.387Z,10.96
2018-04-15T02:30:02.598Z,10.96
2018-04-15T02:31:02.811Z,10.96
2018-04-15T02:32:04.797Z,10.96
2018-04-15T02:33:03.253Z,10.95
2018-04-15T02:34:03.464Z,10.98
2018-04-15T02:35:03.690Z,11.01
2018-04-15T02:36:03.945Z,10.99
2018-04-15T02:37:04.131Z,10.99
2018-04-15T02:38:04.343Z,11.06
2018-04-15T02:39:04.546Z,10.99
2018-04-15T02:40:06.291Z,11.02
2018-04-15T02:41:04.868Z,10.98
2018-04-15T02:42:05.075Z,10.98
2018-04-15T02:43:05.338Z,10.95
2018-04-15T02:44:05.509Z,10.98
2018-04-15T02:45:05.713Z,11.01
2018-04-15T02:46:05.939Z,10.92
2018-04-15T02:47:06.157Z,10.88
2018-04-15T02:48:08.291Z,10.94
2018-04-15T02:49:06.511Z,10.84
2018-04-15T02:50:06.721Z,10.78
2018-04-15T02:51:08.797Z,10.71
2018-04-15T02:52:07.132Z,10.80
2018-04-15T02:53:07.351Z,10.80
2018-04-15T02:54:07.566Z,10.81
2018-04-15T02:55:08.585Z,10.63
2018-04-15T02:56:07.937Z,10.68
2018-04-15T02:57:08.147Z,10.60
2018-04-15T02:58:08.361Z,10.58
2018-04-15T02:59:08.579Z,10.53
2018-04-15T03:00:08.791Z,10.65
2018-04-15T03:01:12.883Z,10.62
2018-04-15T03:02:09.213Z,10.60
2018-04-15T03:03:09.420Z,10.53
2018-04-15T03:04:09.638Z,10.44
2018-04-15T03:05:09.850Z,10.46
2018-04-15T03:06:10.054Z,10.55
2018-04-15T03:07:10.308Z,10.58
2018-04-15T03:08:10.487Z,10.36
2018-04-15T03:09:10.690Z,10.34
2018-04-15T03:10:10.897Z,10.34
2018-04-15T03:11:11.138Z,10.28
2018-04-15T03:12:14.295Z,10.21
2018-04-15T03:13:11.515Z,10.30
2018-04-15T03:14:11.721Z,10.34
2018-04-15T03:15:11.928Z,10.28
2018-04-15T03:16:12.143Z,10.32
2018-04-15T03:17:12.365Z,10.34
2018-04-15T03:18:12.575Z,10.30
2018-04-15T03:19:12.793Z,10.34
2018-04-15T03:20:13.002Z,10.34
2018-04-15T03:21:14.799Z,10.37
2018-04-15T03:22:13.397Z,10.34
2018-04-15T03:23:13.593Z,10.34
2018-04-15T03:24:13.805Z,10.26
2018-04-15T03:25:14.042Z,10.37
2018-04-15T03:26:14.253Z,10.25
2018-04-15T03:27:14.454Z,10.32
2018-04-15T03:28:14.667Z,10.34
2018-04-15T03:29:14.885Z,10.25
2018-04-15T03:30:15.130Z,10.34
2018-04-15T03:31:15.538Z,10.32
2018-04-15T03:32:15.421Z,10.34
2018-04-15T03:33:15.532Z,10.37
2018-04-15T03:34:15.646Z,10.30
2018-04-15T03:35:15.858Z,10.17
2018-04-15T03:36:17.807Z,10.18
2018-04-15T03:37:16.280Z,10.09
2018-04-15T03:38:16.629Z,10.14
2018-04-15T03:39:16.676Z,10.15
2018-04-15T03:40:18.315Z,10.07
2018-04-15T03:41:16.900Z,10.04
2018-04-15T03:42:17.111Z,10.03
2018-04-15T03:43:17.309Z,10.09
2018-04-15T03:44:17.528Z,10.14
2018-04-15T03:45:22.513Z,10.12
2018-04-15T03:46:17.841Z,10.01
2018-04-15T03:47:19.791Z,10.10
2018-04-15T03:48:18.271Z,10.03
2018-04-15T03:49:18.474Z,10.01
2018-04-15T03:50:18.693Z,9.99
2018-04-15T03:51:21.808Z,9.94
2018-04-15T03:52:19.032Z,10.03
2018-04-15T03:53:19.248Z,9.99
2018-04-15T03:54:21.291Z,9.96
2018-04-15T03:55:19.629Z,10.06
2018-04-15T03:56:19.838Z,10.10
2018-04-15T03:57:20.076Z,10.14
2018-04-15T03:58:20.264Z,10.18
2018-04-15T03:59:20.477Z,10.09
2018-04-15T04:00:22.307Z,10.14
2018-04-15T04:01:20.914Z,10.03
2018-04-15T04:02:21.140Z,10.10
2018-04-15T04:03:21.353Z,10.07
2018-04-15T04:04:21.560Z,10.00
2018-04-15T04:05:21.777Z,10.09
2018-04-15T04:06:22.009Z,10.14
2018-04-15T04:07:22.203Z,10.04
2018-04-15T04:08:22.416Z,10.01
2018-04-15T04:09:23.406Z,10.01
2018-04-15T04:10:24.491Z,10.00
2018-04-15T04:11:22.953Z,10.00
2018-04-15T04:12:23.153Z,9.94
2018-04-15T04:13:23.368Z,9.85
2018-04-15T04:14:23.585Z,9.93
2018-04-15T04:15:23.784Z,9.93
2018-04-15T04:16:24.001Z,9.91
2018-04-15T04:17:24.208Z,10.03
2018-04-15T04:18:24.419Z,9.97
2018-04-15T04:19:24.635Z,9.94
2018-04-15T04:20:24.859Z,9.94
2018-04-15T04:21:25.061Z,9.89
2018-04-15T04:22:25.256Z,9.94
2018-04-15T04:23:25.460Z,9.97
2018-04-15T04:24:25.682Z,9.96
2018-04-15T04:25:25.885Z,9.94
2018-04-15T04:26:26.107Z,9.82
2018-04-15T04:27:26.317Z,9.86
2018-04-15T04:28:26.581Z,9.89
2018-04-15T04:29:26.756Z,9.81
2018-04-15T04:30:26.891Z,9.81
2018-04-15T04:31:27.062Z,9.82
2018-04-15T04:32:27.282Z,9.91
2018-04-15T04:33:27.495Z,9.91
2018-04-15T04:34:27.705Z,9.86
2018-04-15T04:35:27.922Z,9.88
2018-04-15T04:36:28.160Z,9.88
2018-04-15T04:37:28.356Z,9.96
2018-04-15T04:38:28.588Z,9.89
2018-04-15T04:39:30.043Z,9.93
2018-04-15T04:40:29.906Z,10.00
2018-04-15T04:41:30.135Z,10.01
2018-04-15T04:42:32.299Z,9.97
2018-04-15T04:43:29.500Z,10.07
2018-04-15T04:44:29.699Z,10.06
2018-04-15T04:45:29.919Z,10.01
2018-04-15T04:46:30.127Z,10.09
2018-04-15T04:47:32.290Z,10.03
2018-04-15T04:48:30.505Z,10.04
2018-04-15T04:49:30.705Z,10.06
2018-04-15T04:50:32.791Z,10.00
2018-04-15T04:51:31.122Z,10.00
2018-04-15T04:52:33.289Z,9.97
2018-04-15T04:53:31.509Z,9.88
2018-04-15T04:54:31.737Z,9.83
2018-04-15T04:55:31.936Z,9.79
2018-04-15T04:56:32.045Z,9.86
2018-04-15T04:57:32.257Z,9.83
2018-04-15T04:58:32.471Z,9.82
2018-04-15T04:59:32.682Z,9.81
2018-04-15T05:00:32.898Z,9.81
2018-04-15T05:01:33.106Z,9.89
2018-04-15T05:02:33.324Z,9.97
2018-04-15T05:03:33.536Z,10.01
2018-04-15T05:04:33.750Z,9.96
2018-04-15T05:05:33.950Z,9.99
2018-04-15T05:06:34.274Z,9.94
2018-04-15T05:07:34.301Z,10.06
2018-04-15T05:08:34.522Z,9.99
2018-04-15T05:09:34.729Z,10.00
2018-04-15T05:10:36.794Z,10.06
2018-04-15T05:11:35.168Z,10.03
2018-04-15T05:12:36.791Z,10.00
2018-04-15T05:13:35.370Z,10.03
2018-04-15T05:14:35.591Z,10.07
2018-04-15T05:15:35.799Z,9.96
2018-04-15T05:16:36.011Z,10.09
2018-04-15T05:17:36.242Z,9.99
2018-04-15T05:18:37.710Z,10.12
2018-04-15T05:19:36.689Z,10.06
2018-04-15T05:20:36.904Z,9.99
2018-04-15T05:21:37.123Z,10.10
2018-04-15T05:22:37.332Z,10.04
2018-04-15T05:23:37.535Z,10.12
2018-04-15T05:24:37.756Z,10.12
2018-04-15T05:25:37.978Z,10.19
2018-04-15T05:26:38.189Z,10.22
2018-04-15T05:27:38.577Z,10.30
2018-04-15T05:28:38.616Z,10.21
2018-04-15T05:29:38.828Z,10.28
2018-04-15T05:30:39.048Z,10.25
2018-04-15T05:31:39.250Z,10.28
2018-04-15T05:32:39.469Z,10.26
2018-04-15T05:33:39.671Z,10.25
2018-04-15T05:34:39.881Z,10.30
2018-04-15T05:35:40.101Z,10.33
2018-04-15T05:36:40.331Z,10.43
2018-04-15T05:37:40.514Z,10.37
2018-04-15T05:38:40.716Z,10.34
2018-04-15T05:39:40.932Z,10.39
2018-04-15T05:40:41.153Z,10.44
2018-04-15T05:41:41.352Z,10.42
2018-04-15T05:42:41.591Z,10.52
2018-04-15T05:43:41.786Z,10.55
2018-04-15T05:44:41.988Z,10.52
2018-04-15T05:45:42.197Z,10.53
2018-04-15T05:46:42.415Z,10.71
2018-04-15T05:47:42.635Z,10.92
2018-04-15T05:48:42.838Z,10.99
2018-04-15T05:49:43.053Z,11.19
2018-04-15T05:50:43.254Z,11.16
2018-04-15T05:51:43.466Z,11.31
2018-04-15T05:52:45.302Z,11.27
2018-04-15T05:53:45.827Z,11.39
2018-04-15T05:54:44.027Z,11.53
2018-04-15T05:55:44.237Z,11.49
2018-04-15T05:56:44.453Z,11.46
2018-04-15T05:57:44.652Z,11.36
2018-04-15T05:58:44.858Z,11.56
2018-04-15T05:59:45.083Z,11.56
2018-04-15T06:00:45.301Z,11.62
2018-04-15T06:01:45.505Z,11.70
2018-04-15T06:02:45.723Z,11.85
2018-04-15T06:03:45.924Z,11.85
2018-04-15T06:04:46.136Z,11.99
2018-04-15T06:05:46.352Z,12.04
2018-04-15T06:06:49.295Z,12.02
2018-04-15T06:07:46.769Z,12.12
2018-04-15T06:08:46.977Z,11.99
2018-04-15T06:09:48.821Z,12.15
2018-04-15T06:10:47.395Z,12.15
2018-04-15T06:11:47.602Z,12.05
2018-04-15T06:12:47.807Z,12.11
2018-04-15T06:13:48.026Z,12.20
2018-04-15T06:14:48.233Z,12.27
2018-04-15T06:15:48.440Z,12.21
2018-04-15T06:16:48.658Z,12.16
2018-04-15T06:17:48.865Z,12.30
2018-04-15T06:18:49.082Z,12.31
2018-04-15T06:19:49.307Z,12.24
2018-04-15T06:20:49.501Z,12.23
2018-04-15T06:21:49.717Z,12.31
2018-04-15T06:22:49.930Z,12.23
2018-04-15T06:23:50.143Z,12.31
2018-04-15T06:24:50.366Z,12.26
2018-04-15T06:25:52.301Z,12.24
2018-04-15T06:26:50.783Z,12.16
2018-04-15T06:27:50.993Z,11.93
2018-04-15T06:28:51.199Z,11.85
2018-04-15T06:29:51.413Z,11.97
2018-04-15T06:30:51.639Z,11.93
2018-04-15T06:31:54.797Z,11.89
2018-04-15T06:32:52.028Z,12.01
2018-04-15T06:33:52.208Z,11.96
2018-04-15T06:34:52.416Z,11.99
2018-04-15T06:35:52.640Z,11.99
2018-04-15T06:36:52.871Z,12.09
2018-04-15T06:37:54.792Z,12.08
2018-04-15T06:38:53.261Z,12.16
2018-04-15T06:39:53.477Z,12.16
2018-04-15T06:40:53.697Z,12.30
2018-04-15T06:41:55.793Z,12.27
2018-04-15T06:42:54.121Z,12.24
2018-04-15T06:43:56.292Z,12.29
2018-04-15T06:44:54.518Z,12.30
2018-04-15T06:45:54.743Z,12.34
2018-04-15T06:46:54.962Z,12.38
2018-04-15T06:47:55.181Z,12.48
2018-04-15T06:48:55.401Z,12.51
2018-04-15T06:49:55.595Z,12.59
2018-04-15T06:50:55.811Z,12.70
2018-04-15T06:51:57.797Z,12.79
2018-04-15T06:52:56.257Z,12.81
2018-04-15T06:53:58.292Z,12.82
2018-04-15T06:54:56.624Z,12.92
2018-04-15T06:55:58.802Z,12.92
2018-04-15T06:56:58.811Z,13.06
2018-04-15T06:57:57.143Z,13.06
2018-04-15T06:58:57.383Z,13.14
2018-04-15T06:59:57.577Z,13.20
2018-04-15T07:00:57.792Z,13.22
2018-04-15T07:01:57.994Z,13.33
2018-04-15T07:02:58.215Z,13.24
2018-04-15T07:03:58.418Z,13.33
2018-04-15T07:05:02.293Z,13.40
2018-04-15T07:05:58.761Z,13.46
2018-04-15T07:06:58.987Z,13.33
2018-04-15T07:07:59.191Z,13.41
2018-04-15T07:09:01.296Z,13.59
2018-04-15T07:09:59.636Z,13.58
2018-04-15T07:10:59.853Z,13.54
2018-04-15T07:12:02.808Z,13.67
2018-04-15T07:13:00.271Z,13.77
2018-04-15T07:14:00.494Z,13.81
2018-04-15T07:15:00.701Z,13.87
2018-04-15T07:16:02.793Z,13.88
2018-04-15T07:17:01.144Z,13.94
2018-04-15T07:18:01.361Z,13.94
2018-04-15T07:19:03.297Z,13.94
2018-04-15T07:20:01.755Z,13.88
2018-04-15T07:21:01.958Z,13.94
2018-04-15T07:22:02.179Z,13.94
2018-04-15T07:23:02.381Z,13.89
2018-04-15T07:24:04.295Z,13.84
2018-04-15T07:25:02.769Z,13.88
2018-04-15T07:26:02.975Z,13.88
2018-04-15T07:27:03.179Z,13.74
2018-04-15T07:28:05.296Z,13.77
2018-04-15T07:29:03.509Z,13.73
2018-04-15T07:30:03.729Z,13.74
2018-04-15T07:31:03.946Z,13.70
2018-04-15T07:32:04.147Z,13.76
2018-04-15T07:33:04.365Z,13.77
2018-04-15T07:34:04.601Z,13.65
2018-04-15T07:35:06.802Z,13.73
2018-04-15T07:36:05.031Z,13.76
2018-04-15T07:37:05.237Z,13.59
2018-04-15T07:38:07.295Z,13.65
2018-04-15T07:39:07.295Z,13.76
2018-04-15T07:40:05.770Z,13.74
2018-04-15T07:41:05.991Z,13.81
2018-04-15T07:42:07.798Z,14.02
2018-04-15T07:43:06.393Z,14.07
2018-04-15T07:44:10.295Z,14.13
2018-04-15T07:45:06.771Z,14.34
2018-04-15T07:46:06.999Z,14.38
2018-04-15T07:47:07.224Z,14.50
2018-04-15T07:48:07.442Z,14.61
2018-04-15T07:49:07.654Z,14.71
2018-04-15T07:50:07.868Z,14.86
2018-04-15T07:51:08.088Z,14.83
2018-04-15T07:52:08.310Z,14.69
2018-04-15T07:53:10.300Z,14.64
2018-04-15T07:54:08.750Z,14.60
2018-04-15T07:55:10.799Z,14.64
2018-04-15T07:56:09.134Z,14.67
2018-04-15T07:57:09.338Z,14.72
2018-04-15T07:58:09.559Z,14.94
2018-04-15T07:59:11.299Z,15.11
2018-04-15T08:00:11.030Z,15.08
2018-04-15T08:01:10.248Z,15.12
2018-04-15T08:02:10.447Z,15.28
2018-04-15T08:03:10.685Z,15.41
2018-04-15T08:04:10.895Z,15.39
2018-04-15T08:05:11.116Z,15.42
2018-04-15T08:06:13.307Z,15.42
2018-04-15T08:07:11.536Z,15.28
2018-04-15T08:08:11.762Z,15.15
2018-04-15T08:09:11.961Z,15.43
2018-04-15T08:10:12.170Z,15.17
2018-04-15T08:11:12.392Z,14.95
2018-04-15T08:12:12.605Z,14.74
2018-04-15T08:13:12.816Z,14.81
2018-04-15T08:14:14.806Z,14.91
2018-04-15T08:15:13.267Z,15.09
2018-04-15T08:16:13.479Z,15.12
2018-04-15T08:17:15.311Z,15.24
2018-04-15T08:18:13.886Z,15.21
2018-04-15T08:19:14.122Z,15.27
2018-04-15T08:20:18.305Z,15.31
2018-04-15T08:21:16.297Z,15.09
2018-04-15T08:22:16.301Z,14.88
2018-04-15T08:23:16.300Z,15.02
2018-04-15T08:24:14.881Z,14.98
2018-04-15T08:25:15.146Z,14.69
2018-04-15T08:26:15.312Z,14.72
2018-04-15T08:27:15.519Z,14.68
2018-04-15T08:28:15.739Z,14.64
2018-04-15T08:29:18.799Z,14.60
2018-04-15T08:30:16.143Z,14.53
2018-04-15T08:31:16.354Z,14.52
2018-04-15T08:32:16.568Z,14.46
2018-04-15T08:33:18.309Z,14.49
2018-04-15T08:34:17.012Z,14.56
2018-04-15T08:35:17.258Z,14.56
2018-04-15T08:36:17.453Z,14.62
2018-04-15T08:37:17.675Z,14.74
2018-04-15T08:38:17.894Z,14.99
2018-04-15T08:39:18.112Z,15.11
2018-04-15T08:40:18.335Z,15.13
2018-04-15T08:41:18.546Z,15.27
2018-04-15T08:42:18.770Z,15.48
2018-04-15T08:43:21.368Z,15.60
2018-04-15T08:44:19.211Z,15.85
2018-04-15T08:45:19.425Z,16.00
2018-04-15T08:46:19.645Z,15.94
2018-04-15T08:47:21.812Z,16.04
2018-04-15T08:48:20.025Z,16.07
2018-04-15T08:49:20.237Z,16.23
2018-04-15T08:50:21.465Z,16.15
2018-04-15T08:51:20.667Z,16.49
2018-04-15T08:52:20.884Z,17.04
2018-04-15T08:53:21.102Z,17.00
2018-04-15T08:54:21.315Z,17.17
2018-04-15T08:55:21.543Z,17.18
2018-04-15T08:56:21.751Z,17.23
2018-04-15T08:57:21.966Z,17.06
2018-04-15T08:58:22.181Z,16.90
2018-04-15T08:59:25.306Z,16.86
2018-04-15T09:00:22.533Z,17.17
2018-04-15T09:01:22.755Z,17.14
2018-04-15T09:02:22.971Z,17.14
2018-04-15T09:03:23.187Z,16.98
2018-04-15T09:04:23.397Z,16.78
2018-04-15T09:05:23.610Z,16.77
2018-04-15T09:06:23.833Z,17.04
2018-04-15T09:07:24.045Z,17.43
2018-04-15T09:08:24.272Z,17.29
2018-04-15T09:09:24.500Z,17.97
2018-04-15T09:10:24.718Z,17.79
2018-04-15T09:11:24.939Z,17.81
2018-04-15T09:12:25.170Z,17.51
2018-04-15T09:13:26.639Z,17.71
2018-04-15T09:14:27.320Z,18.31
2018-04-15T09:15:25.797Z,17.87
2018-04-15T09:16:27.803Z,18.40
2018-04-15T09:17:26.156Z,18.86
2018-04-15T09:18:28.305Z,19.33
2018-04-15T09:19:26.535Z,19.17
2018-04-15T09:20:26.748Z,19.88
2018-04-15T09:21:26.962Z,20.15
2018-04-15T09:22:27.192Z,21.06
2018-04-15T09:23:27.446Z,20.81
2018-04-15T09:24:27.643Z,20.59
2018-04-15T09:25:30.807Z,20.06
2018-04-15T09:26:31.806Z,19.13
2018-04-15T09:27:28.160Z,19.25
2018-04-15T09:28:36.307Z,20.06
2018-04-15T09:29:29.532Z,20.42
2018-04-15T09:30:29.763Z,20.53
2018-04-15T09:31:28.975Z,20.89
2018-04-15T09:32:29.235Z,20.98
2018-04-15T09:33:37.303Z,20.96
2018-04-15T09:34:29.645Z,20.91
2018-04-15T09:35:37.874Z,20.93
2018-04-15T09:36:30.034Z,21.13
2018-04-15T09:37:30.265Z,20.87
2018-04-15T09:38:34.353Z,20.66
2018-04-15T09:39:51.715Z,20.39
2018-04-15T09:40:30.918Z,20.49
2018-04-15T09:41:33.803Z,20.68
2018-04-15T09:42:31.324Z,20.66
2018-04-15T09:43:32.267Z,21.27
2018-04-15T09:44:35.309Z,21.46
2018-04-15T09:45:31.815Z,21.42
2018-04-15T09:46:31.938Z,21.67
2018-04-15T09:47:35.822Z,21.66
2018-04-15T09:48:34.297Z,21.46
2018-04-15T09:49:34.342Z,21.71
2018-04-15T09:50:32.692Z,21.81
2018-04-15T09:53:04.737Z,21.11
2018-04-15T09:54:05.521Z,21.27
2018-04-15T09:55:05.120Z,21.11
2018-04-15T09:56:05.349Z,20.56
2018-04-15T09:57:05.540Z,21.06
2018-04-15T09:58:10.647Z,21.23
2018-04-15T09:59:07.555Z,21.23
2018-04-15T10:00:08.806Z,21.09
2018-04-15T10:01:27.253Z,20.89
2018-04-15T10:02:07.501Z,21.36
2018-04-15T10:03:06.633Z,21.46
2018-04-15T10:04:08.588Z,21.67
2018-04-15T10:05:09.536Z,21.75
2018-04-15T10:06:08.529Z,21.98
2018-04-15T10:07:07.254Z,21.66
2018-04-15T10:08:09.087Z,21.50
2018-04-15T10:09:09.546Z,21.56
2018-04-15T10:10:09.494Z,21.83
2018-04-15T10:11:08.127Z,21.78
2018-04-15T10:12:10.049Z,21.67
2018-04-15T10:13:12.440Z,22.37
2018-04-15T10:14:20.535Z,22.27
2018-04-15T10:15:10.555Z,22.92
2018-04-15T10:16:10.538Z,22.67
2018-04-15T10:17:09.263Z,22.56
2018-04-15T10:18:10.526Z,22.41
2018-04-15T10:19:10.723Z,22.99
2018-04-15T10:20:09.839Z,22.78
2018-04-15T10:21:16.052Z,22.32
2018-04-15T10:22:10.301Z,21.99
2018-04-15T10:23:12.035Z,22.57
2018-04-15T10:24:15.502Z,21.75
2018-04-15T10:25:12.539Z,22.38
2018-04-15T10:26:11.065Z,22.23
2018-04-15T10:27:13.049Z,22.94
2018-04-15T10:28:13.035Z,22.38
2018-04-15T10:29:15.547Z,23.31
2018-04-15T10:30:19.542Z,24.13
2018-04-15T10:31:12.159Z,23.45
2018-04-15T10:32:14.033Z,23.22
2018-04-15T10:33:14.034Z,23.01
2018-04-15T10:34:12.643Z,23.31
2018-04-15T10:35:16.555Z,23.12
2018-04-15T10:36:14.553Z,23.46
2018-04-15T10:37:17.033Z,23.57
2018-04-15T10:38:15.211Z,23.47
2018-04-15T10:39:15.554Z,23.76
2018-04-15T10:40:13.883Z,23.65
2018-04-15T10:41:30.037Z,23.75
2018-04-15T10:42:21.038Z,24.24
2018-04-15T10:43:15.157Z,23.94
2018-04-15T10:44:16.534Z,24.14
2018-04-15T10:45:16.552Z,24.38
2018-04-15T10:46:14.925Z,24.79
2018-04-15T10:47:16.000Z,25.50
2018-04-15T10:48:20.039Z,25.94
2018-04-15T10:49:17.042Z,26.06
2018-04-15T10:50:15.632Z,25.43
2018-04-15T10:51:18.540Z,25.13
2018-04-15T10:52:16.041Z,25.20
2018-04-15T10:53:16.305Z,25.64
2018-04-15T10:54:18.051Z,25.97
2018-04-15T10:55:18.540Z,26.31
2018-04-15T10:56:18.582Z,26.68
2018-04-15T10:57:16.938Z,25.99
2018-04-15T10:58:23.259Z,25.62
2018-04-15T10:59:21.037Z,25.94
2018-04-15T11:00:29.557Z,26.25
2018-04-15T11:01:18.830Z,27.04
2018-04-15T11:02:20.506Z,27.42
2018-04-15T11:03:30.042Z,27.62
2018-04-15T11:04:20.044Z,26.44
2018-04-15T11:05:18.430Z,25.69
2018-04-15T11:06:20.064Z,26.54
2018-04-15T11:07:21.561Z,26.67
2018-04-15T11:08:19.082Z,27.10
2018-04-15T11:09:21.047Z,27.28
2018-04-15T11:10:20.491Z,27.48
2018-04-15T11:11:22.540Z,27.01
2018-04-15T11:12:19.753Z,27.14
2018-04-15T11:13:22.558Z,26.54
2018-04-15T11:14:20.182Z,25.82
2018-04-15T11:15:22.036Z,25.97
2018-04-15T11:16:25.091Z,26.22
2018-04-15T11:17:22.550Z,25.90
2018-04-15T11:18:20.923Z,25.53
2018-04-15T11:19:23.049Z,25.46
2018-04-15T11:20:21.308Z,25.09
2018-04-15T11:21:21.539Z,24.44
2018-04-15T11:22:23.567Z,24.35
2018-04-15T11:23:25.539Z,24.23
2018-04-15T11:24:24.041Z,24.42
2018-04-15T11:25:26.055Z,24.42
2018-04-15T11:26:24.067Z,24.29
2018-04-15T11:27:26.540Z,24.42
2018-04-15T11:28:24.538Z,23.89
2018-04-15T11:29:24.551Z,24.04
2018-04-15T11:30:25.056Z,23.76
2018-04-15T11:31:25.037Z,23.65
2018-04-15T11:32:27.076Z,23.38
2018-04-15T11:33:23.799Z,23.27
2018-04-15T11:34:25.548Z,23.29
2018-04-15T11:35:24.168Z,23.11
2018-04-15T11:36:26.043Z,23.32
2018-04-15T11:37:24.576Z,23.71
2018-04-15T11:38:26.871Z,24.04
2018-04-15T11:39:24.908Z,23.92
2018-04-15T11:40:25.129Z,23.76
2018-04-15T11:41:27.045Z,23.65
2018-04-15T11:42:29.039Z,23.76
2018-04-15T11:43:27.548Z,23.64
2018-04-15T11:44:27.540Z,23.87
2018-04-15T11:45:29.043Z,24.01
2018-04-15T11:46:28.041Z,24.07
2018-04-15T11:47:28.057Z,24.07
2018-04-15T11:48:28.805Z,24.24
2018-04-15T11:49:28.600Z,24.14
2018-04-15T11:50:28.557Z,24.14
2018-04-15T11:51:27.152Z,23.79
2018-04-15T11:52:27.642Z,23.94
2018-04-15T11:53:29.547Z,23.95
2018-04-15T11:54:27.776Z,24.02
2018-04-15T11:55:27.895Z,23.87
2018-04-15T11:56:36.055Z,24.02
2018-04-15T11:57:30.043Z,24.22
2018-04-15T11:58:30.101Z,24.44
2018-04-15T11:59:31.075Z,24.32
2018-04-15T12:00:28.645Z,24.31
2018-04-15T12:01:38.408Z,24.32
2018-04-15T12:02:32.072Z,24.27
2018-04-15T12:03:30.847Z,24.29
2018-04-15T12:04:30.854Z,24.22
2018-04-15T12:05:31.598Z,24.29
2018-04-15T12:06:32.150Z,23.94
2018-04-15T12:07:32.361Z,24.22
2018-04-15T12:08:31.566Z,24.37
2018-04-15T12:09:32.068Z,25.05
2018-04-15T12:10:30.292Z,25.42
2018-04-15T12:11:30.541Z,25.49
2018-04-15T12:12:32.550Z,25.06
2018-04-15T12:13:30.891Z,24.95
2018-04-15T12:14:31.099Z,24.60
2018-04-15T12:15:34.048Z,24.20
2018-04-15T12:16:33.046Z,24.00
2018-04-15T12:17:31.639Z,23.65
2018-04-15T12:18:31.864Z,23.15
2018-04-15T12:19:34.151Z,23.14
2018-04-15T12:20:34.084Z,23.04
2018-04-15T12:21:34.044Z,23.09
2018-04-15T12:22:40.542Z,22.57
2018-04-15T12:23:36.565Z,22.74
2018-04-15T12:24:34.552Z,22.86
2018-04-15T12:25:34.159Z,22.94
2018-04-15T12:26:33.389Z,22.87
2018-04-15T12:27:35.733Z,23.07
2018-04-15T12:28:40.102Z,22.75
2018-04-15T12:29:37.555Z,22.84
2018-04-15T12:30:36.085Z,22.77
2018-04-15T12:31:34.300Z,22.54
2018-04-15T12:32:35.928Z,22.52
2018-04-15T12:33:34.765Z,22.34
2018-04-15T12:34:35.987Z,22.41
2018-04-15T12:35:37.119Z,22.37
2018-04-15T12:36:35.390Z,22.43
2018-04-15T12:37:35.609Z,22.43
2018-04-15T12:38:37.561Z,22.57
2018-04-15T12:39:38.692Z,22.50
2018-04-15T12:40:39.053Z,22.67
2018-04-15T12:41:36.516Z,22.74
2018-04-15T12:42:44.560Z,22.82
2018-04-15T12:43:37.889Z,22.69
2018-04-15T12:44:37.110Z,22.56
2018-04-15T12:45:39.047Z,22.54
2018-04-15T12:46:37.581Z,22.56
2018-04-15T12:47:37.776Z,22.71
2018-04-15T12:48:37.971Z,22.49
2018-04-15T12:49:40.179Z,22.64
2018-04-15T12:50:38.514Z,22.57
2018-04-15T12:51:41.523Z,22.57
2018-04-15T12:52:40.734Z,22.69
2018-04-15T12:53:40.122Z,22.75
2018-04-15T12:54:39.633Z,22.83
2018-04-15T12:55:42.570Z,22.93
2018-04-15T12:56:41.255Z,23.15
2018-04-15T12:57:40.648Z,23.23
2018-04-15T12:58:42.737Z,23.31